地図

経路データ

SID SEASON NUMBER BASIN SUBBASIN NAME ISO_TIME NATURE LAT LON WMO_WIND WMO_PRES WMO_AGENCY TRACK_TYPE DIST2LAND LANDFALL IFLAG USA_AGENCY USA_ATCF_ID USA_LAT USA_LON USA_RECORD USA_STATUS USA_WIND USA_PRES USA_SSHS USA_R34_NE USA_R34_SE USA_R34_SW USA_R34_NW USA_R50_NE USA_R50_SE USA_R50_SW USA_R50_NW USA_R64_NE USA_R64_SE USA_R64_SW USA_R64_NW USA_POCI USA_ROCI USA_RMW USA_EYE TOKYO_LAT TOKYO_LON TOKYO_GRADE TOKYO_WIND TOKYO_PRES TOKYO_R50_DIR TOKYO_R50_LONG TOKYO_R50_SHORT TOKYO_R30_DIR TOKYO_R30_LONG TOKYO_R30_SHORT TOKYO_LAND CMA_LAT CMA_LON CMA_CAT CMA_WIND CMA_PRES HKO_LAT HKO_LON HKO_CAT HKO_WIND HKO_PRES NEWDELHI_LAT NEWDELHI_LON NEWDELHI_GRADE NEWDELHI_WIND NEWDELHI_PRES NEWDELHI_CI NEWDELHI_DP NEWDELHI_POCI REUNION_LAT REUNION_LON REUNION_TYPE REUNION_WIND REUNION_PRES REUNION_TNUM REUNION_CI REUNION_RMW REUNION_R34_NE REUNION_R34_SE REUNION_R34_SW REUNION_R34_NW REUNION_R50_NE REUNION_R50_SE REUNION_R50_SW REUNION_R50_NW REUNION_R64_NE REUNION_R64_SE REUNION_R64_SW REUNION_R64_NW BOM_LAT BOM_LON BOM_TYPE BOM_WIND BOM_PRES BOM_TNUM BOM_CI BOM_RMW BOM_R34_NE BOM_R34_SE BOM_R34_SW BOM_R34_NW BOM_R50_NE BOM_R50_SE BOM_R50_SW BOM_R50_NW BOM_R64_NE BOM_R64_SE BOM_R64_SW BOM_R64_NW BOM_ROCI BOM_POCI BOM_EYE BOM_POS_METHOD BOM_PRES_METHOD NADI_LAT NADI_LON NADI_CAT NADI_WIND NADI_PRES WELLINGTON_LAT WELLINGTON_LON WELLINGTON_WIND WELLINGTON_PRES DS824_LAT DS824_LON DS824_STAGE DS824_WIND DS824_PRES TD9636_LAT TD9636_LON TD9636_STAGE TD9636_WIND TD9636_PRES TD9635_LAT TD9635_LON TD9635_WIND TD9635_PRES TD9635_ROCI NEUMANN_LAT NEUMANN_LON NEUMANN_CLASS NEUMANN_WIND NEUMANN_PRES MLC_LAT MLC_LON MLC_CLASS MLC_WIND MLC_PRES USA_GUST BOM_GUST BOM_GUST_PER REUNION_GUST REUNION_GUST_PER USA_SEAHGT USA_SEARAD_NE USA_SEARAD_SE USA_SEARAD_SW USA_SEARAD_NW STORM_SPEED STORM_DIR
1888234N21089 1888 39 NI BB NOT_NAMED 1888-08-21 00:00:00 TS 21.4000 88.5000 main 22 22 _________O____ -1 21.4000 88.5000 TC 34 0 0
1888234N21089 1888 39 NI BB NOT_NAMED 1888-08-21 03:00:00 TS 21.4000 88.5000 main 22 22 _________PO___ -1 21.4000 88.5000 TC 36 21.4000 88.5000 2 0 0
1888234N21089 1888 39 NI BB NOT_NAMED 1888-08-21 06:00:00 TS 21.4038 88.5006 main 22 22 _________OP___ -1 21.4000 88.5000 TC 39 21.4094 88.5016 2 0 0
1888234N21089 1888 39 NI BB NOT_NAMED 1888-08-21 09:00:00 TS 21.4064 88.5011 main 22 22 _________PP___ -1 21.4000 88.5000 TC 42 21.4150 88.5025 2 0 0
1888234N21089 1888 39 NI BB NOT_NAMED 1888-08-21 12:00:00 TS 21.4066 88.5011 main 22 22 _________OP___ -1 21.4000 88.5000 TC 45 21.4131 88.5022 2 0 0
1888234N21089 1888 39 NI BB NOT_NAMED 1888-08-21 15:00:00 TS 21.4000 88.5000 main 22 22 _________PO___ -1 21.4000 88.5000 TC 45 21.4000 88.5000 3 0 0
1888234N21089 1888 39 NI BB NOT_NAMED 1888-08-21 18:00:00 TS 21.3878 88.4980 main 22 22 _________OP___ -1 21.4000 88.5000 TC 45 21.3756 88.4960 3 0 211
1888234N21089 1888 39 NI BB NOT_NAMED 1888-08-21 21:00:00 TS 21.3662 88.4925 main 22 22 _________PP___ -1 21.3775 88.4925 TC 45 21.3550 88.4925 3 0 0
1888234N21089 1888 39 NI BB NOT_NAMED 1888-08-22 00:00:00 TS 21.3784 88.4964 main 22 11 _________OP___ -1 21.4000 88.5000 TC 45 21.3569 88.4928 3 1 21
1888234N21089 1888 39 NI BB NOT_NAMED 1888-08-22 03:00:00 TS 21.4638 88.5250 main 11 0 _________PO___ -1 21.5275 88.5500 TC 45 21.4000 88.5000 3 2 14
1888234N21089 1888 39 NI BB NOT_NAMED 1888-08-22 06:00:00 TS 21.6055 88.5609 main 10 10 _________OP___ -1 21.7000 88.6000 TC 45 21.5109 88.5218 3 3 12
1888234N21089 1888 39 NI BB NOT_NAMED 1888-08-22 09:00:00 TS 21.7563 88.5787 main 0 0 _________PP___ -1 21.8500 88.6075 TC 45 21.6625 88.5499 3 3 4
1888234N21089 1888 39 NI BB NOT_NAMED 1888-08-22 12:00:00 TS 21.9164 88.5890 main 0 0 _________OP___ -1 22.0000 88.6000 TC 45 21.8328 88.5781 3 3 0
1888234N21089 1888 39 NI BB NOT_NAMED 1888-08-22 15:00:00 TS 22.0788 88.6000 main 0 0 _________PO___ -1 22.1575 88.6000 TC 45 22.0000 88.6000 3 3 0
1888234N21089 1888 39 NI BB NOT_NAMED 1888-08-22 18:00:00 TS 22.2262 88.6036 main 0 0 _________OP___ -1 22.3000 88.6000 TC 45 22.1525 88.6072 3 3 0
1888234N21089 1888 39 NI BB NOT_NAMED 1888-08-22 21:00:00 TS 22.3587 88.6038 main 0 0 _________PP___ -1 22.4225 88.6000 TC 45 22.2950 88.6075 3 2 0
1888234N21089 1888 39 NI BB NOT_NAMED 1888-08-23 00:00:00 TS 22.4575 88.6020 main 0 0 _________OP___ -1 22.5000 88.6000 TC 45 22.4150 88.6041 3 1 0
1888234N21089 1888 39 NI BB NOT_NAMED 1888-08-23 03:00:00 TS 22.5075 88.6000 main 0 0 _________PO___ -1 22.5150 88.6000 TC 45 22.5000 88.6000 3 1 0
1888234N21089 1888 39 NI BB NOT_NAMED 1888-08-23 06:00:00 TS 22.5180 88.6000 main 0 0 _________OP___ -1 22.5000 88.6000 TC 45 22.5359 88.6000 3 0 0
1888234N21089 1888 39 NI BB NOT_NAMED 1888-08-23 09:00:00 TS 22.5187 88.6000 main 0 0 _________PP___ -1 22.5000 88.6000 TC 45 22.5375 88.6000 3 0 0
1888234N21089 1888 39 NI BB NOT_NAMED 1888-08-23 12:00:00 TS 22.5102 88.6000 main 0 0 _________OP___ -1 22.5000 88.6000 TC 45 22.5203 88.6000 3 0 0
1888234N21089 1888 39 NI BB NOT_NAMED 1888-08-23 15:00:00 TS 22.5000 88.6000 main 0 0 _________PO___ -1 22.5000 88.6000 TC 45 22.5000 88.6000 3 0 136
1888234N21089 1888 39 NI BB NOT_NAMED 1888-08-23 18:00:00 TS 22.4817 88.6081 main 0 0 _________OP___ -1 22.5000 88.6000 TC 45 22.4634 88.6161 3 0 0
1888234N21089 1888 39 NI BB NOT_NAMED 1888-08-23 21:00:00 TS 22.4550 88.6224 main 0 0 _________PP___ -1 22.4775 88.6150 TC 45 22.4325 88.6298 3 0 0
1888234N21089 1888 39 NI BB NOT_NAMED 1888-08-24 00:00:00 TS 22.4676 88.6143 main 0 0 _________OP___ -1 22.5000 88.6000 TC 45 22.4353 88.6285 3 1 331
1888234N21089 1888 39 NI BB NOT_NAMED 1888-08-24 03:00:00 TS 22.5525 88.5575 main 0 0 _________PO___ -1 22.6050 88.5150 TC 41 22.5000 88.6000 3 3 332
1888234N21089 1888 39 NI BB NOT_NAMED 1888-08-24 06:00:00 TS 22.7302 88.4665 main 0 0 _________OP___ -1 22.8000 88.4000 TC 37 22.6603 88.5329 3 5 338
1888234N21089 1888 39 NI BB NOT_NAMED 1888-08-24 09:00:00 TS 22.9838 88.3688 main 0 0 _________PP___ -1 23.0850 88.3000 TC 33 22.8825 88.4377 3 6 340
1888234N21089 1888 39 NI BB NOT_NAMED 1888-08-24 12:00:00 TS 23.2692 88.2618 main 0 0 _________OP___ -1 23.4000 88.2000 TC 30 23.1385 88.3235 3 6 340
1888234N21089 1888 39 NI BB NOT_NAMED 1888-08-24 15:00:00 TS 23.5325 88.1537 main 0 0 _________PO___ -1 23.6650 88.1074 TC 30 23.4000 88.2000 1 5 338
1888234N21089 1888 39 NI BB NOT_NAMED 1888-08-24 18:00:00 TS 23.7727 88.0411 main 0 0 _________OP___ -1 23.9000 88.0000 TC 30 23.6453 88.0823 1 5 334
1888234N21089 1888 39 NI BB NOT_NAMED 1888-08-24 21:00:00 TS 24.0050 87.9038 main 0 0 _________PP___ -1 24.1225 87.8500 TC 30 23.8875 87.9576 1 5 330
1888234N21089 1888 39 NI BB NOT_NAMED 1888-08-25 00:00:00 TS 24.2055 87.7646 main 0 0 _________OP___ -1 24.3000 87.7000 TC 30 24.1109 87.8292 1 4 327
1888234N21089 1888 39 NI BB NOT_NAMED 1888-08-25 03:00:00 TS 24.3575 87.6499 main 0 0 _________PO___ -1 24.4150 87.5999 TC 30 24.3000 87.7000 1 3 321
1888234N21089 1888 39 NI BB NOT_NAMED 1888-08-25 06:00:00 TS 24.4700 87.5354 main 0 0 _________OP___ -1 24.5000 87.5000 TC 30 24.4400 87.5707 1 3 313
1888234N21089 1888 39 NI BB NOT_NAMED 1888-08-25 09:00:00 TS 24.5725 87.3961 main 0 0 _________PP___ -1 24.6000 87.3500 TC 30 24.5450 87.4423 1 3 308
1888234N21089 1888 39 NI BB NOT_NAMED 1888-08-25 12:00:00 TS 24.6637 87.2588 main 0 0 _________OP___ -1 24.7000 87.2000 TC 30 24.6275 87.3177 1 3 309
1888234N21089 1888 39 NI BB NOT_NAMED 1888-08-25 15:00:00 TS 24.7537 87.1462 main 0 0 _________PO___ -1 24.8075 87.0925 TC 30 24.7000 87.2000 1 3 313
1888234N21089 1888 39 NI BB NOT_NAMED 1888-08-25 18:00:00 TS 24.8410 87.0504 main 0 0 _________OP___ -1 24.9000 87.0000 TC 30 24.7821 87.1008 1 2 311
1888234N21089 1888 39 NI BB NOT_NAMED 1888-08-25 21:00:00 TS 24.9037 86.9574 main 0 0 _________PP___ -1 24.9500 86.9074 TC 30 24.8574 87.0073 1 2 305
1888234N21089 1888 39 NI BB NOT_NAMED 1888-08-26 00:00:00 TS 24.9645 86.8551 main 0 0 _________OP___ -1 25.0000 86.8000 TC 30 24.9290 86.9102 1 3 305
1888234N21089 1888 39 NI BB NOT_NAMED 1888-08-26 03:00:00 TS 25.0500 86.7288 main 0 0 _________PO___ -1 25.1000 86.6575 TC 30 25.0000 86.8000 1 3 306
1888234N21089 1888 39 NI BB NOT_NAMED 1888-08-26 06:00:00 TS 25.1395 86.5883 main 0 0 _________OP___ -1 25.2000 86.5000 TC 30 25.0790 86.6765 1 3 302
1888234N21089 1888 39 NI BB NOT_NAMED 1888-08-26 09:00:00 TS 25.2074 86.4475 main 0 0 _________PP___ -1 25.2575 86.3575 TC 30 25.1574 86.5375 1 3 295
1888234N21089 1888 39 NI BB NOT_NAMED 1888-08-26 12:00:00 TS 25.2660 86.2898 main 0 0 _________OP___ -1 25.3000 86.2000 TC 30 25.2321 86.3797 1 3 291
1888234N21089 1888 39 NI BB NOT_NAMED 1888-08-26 15:00:00 TS 25.3250 86.1075 main 0 0 _________PO___ -1 25.3500 86.0150 TC 30 25.3000 86.2000 1 4 287
1888234N21089 1888 39 NI BB NOT_NAMED 1888-08-26 18:00:00 TS 25.3787 85.8922 main 0 0 _________OP___ -1 25.4000 85.8000 TC 30 25.3573 85.9844 1 4 284
1888234N21089 1888 39 NI BB NOT_NAMED 1888-08-26 21:00:00 TS 25.4289 85.6462 main 0 0 _________PP___ -1 25.4501 85.5425 TC 30 25.4077 85.7500 1 4 283
1888234N21089 1888 39 NI BB NOT_NAMED 1888-08-27 00:00:00 TS 25.4771 85.4078 main 0 0 _________OP___ -1 25.5000 85.3000 TC 30 25.4542 85.5156 1 4 284
1888234N21089 1888 39 NI BB NOT_NAMED 1888-08-27 03:00:00 TS 25.5250 85.2175 main 0 0 _________PO___ -1 25.5499 85.1350 TC 30 25.5000 85.3000 1 3 288
1888234N21089 1888 39 NI BB NOT_NAMED 1888-08-27 06:00:00 TS 25.5749 85.0642 main 0 0 _________OP___ -1 25.6000 85.0000 TC 30 25.5498 85.1284 1 3 290
1888234N21089 1888 39 NI BB NOT_NAMED 1888-08-27 09:00:00 TS 25.6249 84.9137 main 0 0 _________PP___ -1 25.6500 84.8500 TC 30 25.5998 84.9774 1 3 291
1888234N21089 1888 39 NI BB NOT_NAMED 1888-08-27 12:00:00 TS 25.6749 84.7689 main 0 0 _________OP___ -1 25.7000 84.7000 TC 30 25.6499 84.8377 1 3 291
1888234N21089 1888 39 NI BB NOT_NAMED 1888-08-27 15:00:00 TS 25.7250 84.6250 main 0 0 _________PO___ -1 25.7500 84.5500 TC 30 25.7000 84.7000 1 3 290
1888234N21089 1888 39 NI BB NOT_NAMED 1888-08-27 18:00:00 TS 25.7709 84.4810 main 0 0 _________OP___ -1 25.8000 84.4000 TC 30 25.7417 84.5620 1 3 289
1888234N21089 1888 39 NI BB NOT_NAMED 1888-08-27 21:00:00 TS 25.8136 84.3436 main 0 0 _________PP___ -1 25.8424 84.2649 TC 30 25.7848 84.4222 1 3 290
1888234N21089 1888 39 NI BB NOT_NAMED 1888-08-28 00:00:00 TS 25.8677 84.1857 main 0 0 _________OP___ -1 25.9000 84.1000 TC 30 25.8354 84.2713 1 4 292
1888234N21089 1888 39 NI BB NOT_NAMED 1888-08-28 03:00:00 TS 25.9463 83.9788 main 0 0 _________PO___ -1 25.9926 83.8575 TC 30 25.9000 84.1000 1 4 294
1888234N21089 1888 39 NI BB NOT_NAMED 1888-08-28 06:00:00 TS 26.0428 83.7503 main 0 0 _________OP___ -1 26.1000 83.6000 TC 30 25.9856 83.9007 1 4 296
1888234N21089 1888 39 NI BB NOT_NAMED 1888-08-28 09:00:00 TS 26.1424 83.5400 main 0 0 _________PP___ -1 26.1999 83.3999 TC 30 26.0850 83.6800 1 4 298
1888234N21089 1888 39 NI BB NOT_NAMED 1888-08-28 12:00:00 TS 26.2459 83.3222 main 0 0 _________OP___ -1 26.3000 83.2000 TC 30 26.1918 83.4444 1 5 297
1888234N21089 1888 39 NI BB NOT_NAMED 1888-08-28 15:00:00 TS 26.3500 83.0787 main 0 0 _________PO___ -1 26.4000 82.9575 TC 30 26.3000 83.2000 1 5 295
1888234N21089 1888 39 NI BB NOT_NAMED 1888-08-28 18:00:00 TS 26.4454 82.8442 main 0 0 _________OP___ -1 26.5000 82.7000 TC 30 26.4045 82.9523 1 5 294
1888234N21089 1888 39 NI BB NOT_NAMED 1888-08-28 21:00:00 TS 26.5432 82.6007 main 0 0 _________PP___ -1 26.6001 82.4476 TC 30 26.5053 82.7027 1 5 294
1888234N21089 1888 39 NI BB NOT_NAMED 1888-08-29 00:00:00 TS 26.6356 82.3679 main 0 0 _________OP___ -1 26.7000 82.2000 TC 30 26.6034 82.4518 1 4 294
1888234N21089 1888 39 NI BB NOT_NAMED 1888-08-29 03:00:00 NR 26.7000 82.2000 main 0 __________O___ -1 TC 26.7000 82.2000 1 3 293

IBTrACS Databaseについて

本データベースは、米国NOAAが公開する1842年以降の世界の熱帯低気圧のベストトラックデータアーカイブInternational Best Track Archive for Climate Stewardship (IBTrACS)を、ウェブで閲覧しやすい形式に変換したものです。

最終更新日:2021-11-26